createdAt,value
2019-03-12T00:01:06.713Z,6.17
2019-03-12T00:03:36.066Z,6.35
2019-03-12T00:06:05.568Z,6.41
2019-03-12T00:08:34.724Z,6.45
2019-03-12T00:11:04.081Z,6.46
2019-03-12T00:13:33.209Z,6.52
2019-03-12T00:16:02.227Z,6.54
2019-03-12T00:18:32.041Z,6.49
2019-03-12T00:21:01.107Z,6.58
2019-03-12T00:23:30.157Z,6.54
2019-03-12T00:25:59.548Z,6.57
2019-03-12T00:28:28.566Z,6.53
2019-03-12T00:30:57.987Z,6.65
2019-03-12T00:33:27.369Z,6.67
2019-03-12T00:35:56.373Z,6.49
2019-03-12T00:38:25.805Z,6.62
2019-03-12T00:40:54.990Z,6.47
2019-03-12T00:43:24.372Z,6.46
2019-03-12T00:45:53.474Z,6.36
2019-03-12T00:48:22.475Z,6.48
2019-03-12T00:50:51.517Z,6.49
2019-03-12T00:53:20.611Z,6.63
2019-03-12T00:55:49.945Z,6.66
2019-03-12T00:58:18.998Z,6.51
2019-03-12T01:00:48.009Z,6.59
2019-03-12T01:03:17.031Z,6.52
2019-03-12T01:05:46.091Z,6.57
2019-03-12T01:08:15.505Z,6.61
2019-03-12T01:10:45.423Z,6.66
2019-03-12T01:13:20.582Z,6.40
2019-03-12T01:15:49.679Z,6.66
2019-03-12T01:18:18.717Z,6.51
2019-03-12T01:20:47.843Z,6.72
2019-03-12T01:23:19.632Z,6.66
2019-03-12T01:25:49.737Z,6.52
2019-03-12T01:28:18.758Z,6.32
2019-03-12T01:30:48.127Z,6.35
2019-03-12T01:33:17.197Z,6.31
2019-03-12T01:35:46.540Z,6.16
2019-03-12T01:38:15.625Z,6.27
2019-03-12T01:40:45.015Z,6.20
2019-03-12T01:43:14.065Z,6.11
2019-03-12T01:45:43.129Z,6.20
2019-03-12T01:48:12.167Z,6.24
2019-03-12T01:50:41.583Z,6.31
2019-03-12T01:53:10.647Z,6.31
2019-03-12T01:55:40.121Z,6.36
2019-03-12T01:58:09.168Z,6.40
2019-03-12T02:00:38.645Z,6.41
2019-03-12T02:03:07.766Z,6.36
2019-03-12T02:05:36.767Z,6.50
2019-03-12T02:08:06.110Z,6.50
2019-03-12T02:10:35.430Z,6.37
2019-03-12T02:13:04.721Z,6.29
2019-03-12T02:15:34.380Z,6.44
2019-03-12T02:18:03.835Z,6.47
2019-03-12T02:20:32.934Z,6.54
2019-03-12T02:23:01.985Z,6.57
2019-03-12T02:25:31.035Z,6.59
2019-03-12T02:28:00.102Z,6.62
2019-03-12T02:30:29.589Z,6.36
2019-03-12T02:32:58.762Z,6.36
2019-03-12T02:35:30.032Z,6.39
2019-03-12T02:37:59.490Z,6.45
2019-03-12T02:40:28.536Z,6.55
2019-03-12T02:42:57.920Z,6.60
2019-03-12T02:45:26.961Z,6.60
2019-03-12T02:47:56.107Z,6.59
2019-03-12T02:50:25.495Z,6.54
2019-03-12T02:52:54.492Z,6.60
2019-03-12T02:55:23.867Z,6.50
2019-03-12T02:57:52.960Z,6.56
2019-03-12T03:00:22.482Z,6.34
2019-03-12T03:02:51.561Z,6.35
2019-03-12T03:05:20.912Z,6.45
2019-03-12T03:07:52.025Z,6.53
2019-03-12T03:10:21.431Z,6.47
2019-03-12T03:12:50.743Z,6.59
2019-03-12T03:15:21.926Z,6.55
2019-03-12T03:17:50.972Z,6.44
2019-03-12T03:20:20.009Z,6.67
2019-03-12T03:22:49.212Z,6.60
2019-03-12T03:25:18.510Z,6.80
2019-03-12T03:27:47.519Z,6.67
2019-03-12T03:30:19.016Z,6.83
2019-03-12T03:32:48.010Z,6.80
2019-03-12T03:35:17.736Z,6.69
2019-03-12T03:37:46.750Z,6.72
2019-03-12T03:40:17.737Z,6.47
2019-03-12T03:42:46.924Z,6.40
2019-03-12T03:45:16.047Z,6.67
2019-03-12T03:47:45.448Z,6.44
2019-03-12T03:50:14.983Z,6.47
2019-03-12T03:52:43.987Z,6.48
2019-03-12T03:55:14.737Z,6.61
2019-03-12T03:57:43.917Z,6.69
2019-03-12T04:00:15.941Z,6.76
2019-03-12T04:02:45.361Z,6.59
2019-03-12T04:05:14.402Z,6.54
2019-03-12T04:07:43.422Z,6.39
2019-03-12T04:10:13.200Z,6.57
2019-03-12T04:12:42.668Z,6.70
2019-03-12T04:15:12.229Z,6.72
2019-03-12T04:17:41.317Z,6.82
2019-03-12T04:20:10.345Z,6.93
2019-03-12T04:22:39.372Z,6.91
2019-03-12T04:25:08.972Z,6.77
2019-03-12T04:27:38.008Z,6.93
2019-03-12T04:30:07.578Z,6.91
2019-03-12T04:32:36.603Z,6.97
2019-03-12T04:35:06.991Z,6.86
2019-03-12T04:37:36.016Z,6.98
2019-03-12T04:40:05.849Z,7.01
2019-03-12T04:42:34.874Z,7.02
2019-03-12T04:45:04.156Z,6.99
2019-03-12T04:47:33.208Z,7.11
2019-03-12T04:50:02.308Z,7.08
2019-03-12T04:52:31.790Z,7.14
2019-03-12T04:55:00.818Z,7.11
2019-03-12T04:57:29.828Z,7.17
2019-03-12T04:59:58.911Z,7.15
2019-03-12T05:02:27.900Z,7.13
2019-03-12T05:04:56.910Z,7.10
2019-03-12T05:07:26.065Z,7.19
2019-03-12T05:09:55.068Z,7.19
2019-03-12T05:12:24.179Z,7.17
2019-03-12T05:14:53.225Z,7.15
2019-03-12T05:17:30.226Z,7.09
2019-03-12T05:19:59.628Z,7.25
2019-03-12T05:22:28.648Z,7.16
2019-03-12T05:24:58.275Z,7.14
2019-03-12T05:27:27.669Z,7.06
2019-03-12T05:29:57.071Z,7.00
2019-03-12T05:32:26.142Z,7.03
2019-03-12T05:34:55.261Z,7.12
2019-03-12T05:37:24.867Z,7.20
2019-03-12T05:39:53.941Z,7.16
2019-03-12T05:42:23.750Z,7.05
2019-03-12T05:44:52.762Z,7.05
2019-03-12T05:47:21.855Z,7.11
2019-03-12T05:49:51.478Z,7.11
2019-03-12T05:52:21.152Z,7.15
2019-03-12T05:54:50.624Z,7.21
2019-03-12T05:57:19.996Z,7.16
2019-03-12T05:59:49.036Z,7.20
2019-03-12T06:02:18.393Z,7.21
2019-03-12T06:04:47.415Z,7.21
2019-03-12T06:07:16.763Z,7.24
2019-03-12T06:09:45.774Z,7.26
2019-03-12T06:12:14.870Z,7.14
2019-03-12T06:14:44.251Z,7.28
2019-03-12T06:17:13.559Z,7.30
2019-03-12T06:19:42.938Z,7.18
2019-03-12T06:22:12.346Z,7.33
2019-03-12T06:24:41.776Z,7.39
2019-03-12T06:27:13.899Z,7.34
2019-03-12T06:29:43.005Z,7.46
2019-03-12T06:32:19.158Z,7.44
2019-03-12T06:34:52.282Z,7.53
2019-03-12T06:37:37.159Z,7.51
2019-03-12T06:40:38.291Z,7.62
2019-03-12T06:43:29.514Z,7.59
2019-03-12T06:46:06.570Z,7.45
2019-03-12T06:48:43.857Z,7.54
2019-03-12T06:51:23.318Z,7.60
2019-03-12T06:54:10.130Z,7.64
2019-03-12T06:57:16.729Z,7.64
2019-03-12T07:00:11.054Z,7.59
2019-03-12T07:02:56.178Z,7.53
2019-03-12T07:05:43.243Z,7.63
2019-03-12T07:08:23.745Z,7.63
2019-03-12T07:11:18.050Z,7.57
2019-03-12T07:13:54.604Z,7.67
2019-03-12T07:16:46.043Z,7.53
2019-03-12T07:19:32.754Z,7.66
2019-03-12T07:22:09.090Z,7.63
2019-03-12T07:24:50.172Z,7.65
2019-03-12T07:27:28.262Z,7.70
2019-03-12T07:30:13.642Z,7.75
2019-03-12T07:32:50.982Z,7.68
2019-03-12T07:35:43.172Z,7.71
2019-03-12T07:38:40.477Z,7.68
2019-03-12T07:41:32.227Z,7.76
2019-03-12T07:44:10.748Z,7.75
2019-03-12T07:47:04.936Z,7.64
2019-03-12T07:49:52.778Z,7.73
2019-03-12T07:52:46.920Z,7.68
2019-03-12T07:55:37.671Z,7.67
2019-03-12T07:58:35.137Z,7.80
2019-03-12T08:01:19.900Z,7.92
2019-03-12T08:04:13.832Z,7.96
2019-03-12T08:07:00.492Z,8.07
2019-03-12T08:09:42.388Z,8.13
2019-03-12T08:12:18.840Z,8.16
2019-03-12T08:15:22.276Z,8.24
2019-03-12T08:17:58.486Z,8.33
2019-03-12T08:20:33.409Z,8.53
2019-03-12T08:23:15.918Z,8.51
2019-03-12T08:26:11.467Z,8.61
2019-03-12T08:28:56.578Z,8.70
2019-03-12T08:31:36.771Z,8.62
2019-03-12T08:34:23.675Z,8.74
2019-03-12T08:37:02.922Z,8.82
2019-03-12T08:39:56.823Z,8.72
2019-03-12T08:42:54.455Z,8.67
2019-03-12T08:45:36.191Z,8.67
2019-03-12T08:48:23.322Z,8.72
2019-03-12T08:51:17.268Z,8.82
2019-03-12T08:54:05.634Z,8.89
2019-03-12T08:56:53.570Z,8.81
2019-03-12T08:59:44.889Z,8.81
2019-03-12T09:02:31.308Z,8.79
2019-03-12T09:05:22.577Z,8.77
2019-03-12T09:08:05.646Z,8.80
2019-03-12T09:10:52.360Z,8.80
2019-03-12T09:13:58.933Z,8.76
2019-03-12T09:16:45.920Z,8.63
2019-03-12T09:19:49.045Z,8.81
2019-03-12T09:22:28.242Z,8.58
2019-03-12T09:25:03.594Z,8.92
2019-03-12T09:27:48.143Z,8.84
2019-03-12T09:30:45.262Z,8.91
2019-03-12T09:33:20.350Z,8.96
2019-03-12T09:36:11.411Z,8.85
2019-03-12T09:38:58.315Z,8.89
2019-03-12T09:41:46.300Z,8.90
2019-03-12T09:44:53.038Z,8.99
2019-03-12T09:47:41.138Z,8.94
2019-03-12T09:50:26.604Z,9.03
2019-03-12T09:53:08.741Z,9.08
2019-03-12T09:55:47.318Z,9.02
2019-03-12T09:58:30.568Z,8.98
2019-03-12T10:01:18.592Z,9.00
2019-03-12T10:04:09.491Z,9.03
2019-03-12T10:07:13.460Z,9.16
2019-03-12T10:09:59.539Z,9.25
2019-03-12T10:12:59.484Z,9.10
2019-03-12T10:15:47.484Z,9.13
2019-03-12T10:18:27.222Z,9.22
2019-03-12T10:21:05.821Z,9.25
2019-03-12T10:23:45.503Z,9.19
2019-03-12T10:26:22.723Z,9.15
2019-03-12T10:28:59.802Z,9.15
2019-03-12T10:31:57.107Z,9.29
2019-03-12T10:34:53.987Z,9.29
2019-03-12T10:37:40.578Z,9.17
2019-03-12T10:40:19.379Z,9.21
2019-03-12T10:43:25.385Z,9.27
2019-03-12T10:46:08.052Z,9.36
2019-03-12T10:48:37.485Z,9.55
2019-03-12T10:51:06.864Z,9.80
2019-03-12T10:53:35.903Z,10.16
2019-03-12T10:56:05.283Z,10.37
2019-03-12T10:58:34.315Z,10.20
2019-03-12T11:01:03.700Z,9.85
2019-03-12T11:03:32.709Z,9.83
2019-03-12T11:06:01.970Z,9.87
2019-03-12T11:08:31.321Z,9.71
2019-03-12T11:11:00.778Z,9.74
2019-03-12T11:13:29.788Z,9.83
2019-03-12T11:15:59.249Z,9.86
2019-03-12T11:18:28.265Z,9.72
2019-03-12T11:20:58.855Z,9.74
2019-03-12T11:23:28.550Z,9.82
2019-03-12T11:25:57.942Z,9.81
2019-03-12T11:28:27.016Z,9.83
2019-03-12T11:30:56.186Z,9.90
2019-03-12T11:33:25.635Z,10.09
2019-03-12T11:35:54.689Z,10.28
2019-03-12T11:38:23.975Z,10.33
2019-03-12T11:40:53.479Z,10.19
2019-03-12T11:43:22.522Z,10.08
2019-03-12T11:45:51.831Z,10.15
2019-03-12T11:48:20.880Z,10.23
2019-03-12T11:50:49.945Z,10.41
2019-03-12T11:53:18.979Z,10.75
2019-03-12T11:55:47.994Z,10.82
2019-03-12T11:58:17.523Z,10.93
2019-03-12T12:00:51.494Z,10.93
2019-03-12T12:03:20.504Z,11.08
2019-03-12T12:05:49.591Z,10.88
2019-03-12T12:08:19.015Z,10.89
2019-03-12T12:10:48.693Z,10.98
2019-03-12T12:13:18.612Z,11.27
2019-03-12T12:15:47.648Z,11.24
2019-03-12T12:18:17.065Z,11.22
2019-03-12T12:20:46.129Z,11.44
2019-03-12T12:23:15.544Z,11.46
2019-03-12T12:25:44.630Z,11.35
2019-03-12T12:28:13.649Z,11.25
2019-03-12T12:30:42.680Z,11.80
2019-03-12T12:33:11.996Z,11.97
2019-03-12T12:35:41.045Z,11.92
2019-03-12T12:38:10.087Z,11.89
2019-03-12T12:40:39.386Z,11.80
2019-03-12T12:43:08.500Z,11.78
2019-03-12T12:45:37.925Z,11.64
2019-03-12T12:48:06.964Z,11.57
2019-03-12T12:50:36.017Z,11.58
2019-03-12T12:53:05.032Z,11.25
2019-03-12T12:55:34.072Z,11.30
2019-03-12T12:58:03.499Z,11.23
2019-03-12T13:00:32.981Z,11.27
2019-03-12T13:03:02.023Z,11.42
2019-03-12T13:05:31.085Z,11.29
2019-03-12T13:08:00.120Z,11.49
2019-03-12T13:10:29.181Z,11.44
2019-03-12T13:12:58.325Z,11.43
2019-03-12T13:15:27.762Z,11.46
2019-03-12T13:17:56.820Z,11.37
2019-03-12T13:20:25.883Z,11.12
2019-03-12T13:22:54.903Z,11.10
2019-03-12T13:25:23.990Z,11.06
2019-03-12T13:27:53.393Z,11.16
2019-03-12T13:30:23.039Z,11.13
2019-03-12T13:32:52.546Z,11.17
2019-03-12T13:35:21.557Z,11.32
2019-03-12T13:37:51.274Z,11.42
2019-03-12T13:40:20.634Z,11.46
2019-03-12T13:42:49.691Z,11.39
2019-03-12T13:45:19.502Z,11.38
2019-03-12T13:47:48.540Z,11.31
2019-03-12T13:50:18.221Z,11.22
2019-03-12T13:52:47.469Z,10.99
2019-03-12T13:55:16.716Z,11.24
2019-03-12T13:57:45.999Z,11.23
2019-03-12T14:00:17.407Z,11.33
2019-03-12T14:02:46.861Z,11.53
2019-03-12T14:05:15.881Z,11.69
2019-03-12T14:07:44.964Z,11.71
2019-03-12T14:10:19.093Z,11.78
2019-03-12T14:12:48.153Z,11.68
2019-03-12T14:15:20.575Z,11.63
2019-03-12T14:17:49.649Z,11.52
2019-03-12T14:20:42.760Z,11.62
2019-03-12T14:23:13.514Z,11.58
2019-03-12T14:25:42.557Z,11.62
2019-03-12T14:28:11.565Z,11.54
2019-03-12T14:30:40.758Z,11.38
2019-03-12T14:33:09.768Z,11.45
2019-03-12T14:35:50.819Z,11.48
2019-03-12T14:38:10.122Z,11.43
2019-03-12T14:40:39.191Z,11.43
2019-03-12T14:43:08.633Z,11.34
2019-03-12T14:45:38.960Z,11.24
2019-03-12T14:48:22.561Z,11.05
2019-03-12T14:50:51.650Z,11.15
2019-03-12T14:53:22.079Z,11.06
2019-03-12T14:55:51.378Z,11.04
2019-03-12T14:58:20.838Z,11.06
2019-03-12T15:00:49.963Z,10.95
2019-03-12T15:03:19.007Z,10.89
2019-03-12T15:05:48.151Z,10.94
2019-03-12T15:08:20.045Z,10.98
2019-03-12T15:10:49.084Z,11.03
2019-03-12T15:13:18.106Z,11.04
2019-03-12T15:15:47.487Z,11.00
2019-03-12T15:18:16.513Z,10.92
2019-03-12T15:20:45.566Z,11.04
2019-03-12T15:23:14.601Z,11.05
2019-03-12T15:25:44.929Z,11.06
2019-03-12T15:28:17.117Z,11.13
2019-03-12T15:30:46.237Z,11.14
2019-03-12T15:33:15.307Z,11.06
2019-03-12T15:35:44.346Z,11.04
2019-03-12T15:38:13.373Z,11.06
2019-03-12T15:40:42.495Z,11.04
2019-03-12T15:43:11.564Z,10.86
2019-03-12T15:45:40.897Z,10.84
2019-03-12T15:48:09.907Z,10.94
2019-03-12T15:50:39.029Z,11.09
2019-03-12T15:53:08.166Z,11.13
2019-03-12T15:55:37.176Z,11.04
2019-03-12T15:58:06.215Z,11.16
2019-03-12T16:00:35.248Z,11.09
2019-03-12T16:03:04.297Z,11.18
2019-03-12T16:05:33.366Z,11.05
2019-03-12T16:08:02.805Z,11.05
2019-03-12T16:10:32.565Z,11.03
2019-03-12T16:13:01.585Z,11.06
2019-03-12T16:15:31.069Z,11.09
2019-03-12T16:18:00.126Z,10.97
2019-03-12T16:20:29.923Z,11.08
2019-03-12T16:22:59.343Z,11.17
2019-03-12T16:25:28.361Z,11.13
2019-03-12T16:27:57.724Z,11.12
2019-03-12T16:30:26.755Z,11.20
2019-03-12T16:32:55.828Z,11.11
2019-03-12T16:35:25.194Z,11.05
2019-03-12T16:37:54.590Z,10.92
2019-03-12T16:40:23.704Z,10.83
2019-03-12T16:42:52.733Z,10.65
2019-03-12T16:45:22.073Z,10.53
2019-03-12T16:47:51.233Z,10.25
2019-03-12T16:50:20.563Z,10.05
2019-03-12T16:52:49.623Z,9.97
2019-03-12T16:55:18.732Z,9.89
2019-03-12T16:57:47.780Z,9.97
2019-03-12T17:00:17.492Z,9.89
2019-03-12T17:02:46.591Z,9.88
2019-03-12T17:05:15.841Z,9.78
2019-03-12T17:07:45.261Z,9.64
2019-03-12T17:10:14.985Z,9.64
2019-03-12T17:12:44.407Z,9.63
2019-03-12T17:15:14.198Z,9.70
2019-03-12T17:17:43.215Z,9.74
2019-03-12T17:20:12.505Z,9.65
2019-03-12T17:22:41.641Z,9.80
2019-03-12T17:25:10.991Z,9.73
2019-03-12T17:27:40.176Z,9.72
2019-03-12T17:30:12.742Z,9.78
2019-03-12T17:32:41.784Z,9.73
2019-03-12T17:35:11.776Z,9.82
2019-03-12T17:37:43.334Z,9.68
2019-03-12T17:40:15.479Z,9.63
2019-03-12T17:42:44.527Z,9.42
2019-03-12T17:45:13.993Z,9.43
2019-03-12T17:47:43.072Z,9.19
2019-03-12T17:50:12.540Z,9.30
2019-03-12T17:52:41.682Z,9.08
2019-03-12T17:55:11.559Z,9.12
2019-03-12T17:57:41.107Z,9.07
2019-03-12T18:00:16.100Z,8.99
2019-03-12T18:02:45.457Z,8.49
2019-03-12T18:05:14.477Z,7.62
2019-03-12T18:07:43.866Z,7.26
2019-03-12T18:10:13.565Z,6.89
2019-03-12T18:12:43.257Z,6.74
2019-03-12T18:15:14.517Z,6.86
2019-03-12T18:17:43.628Z,6.81
2019-03-12T18:20:14.223Z,6.75
2019-03-12T18:22:45.083Z,6.79
2019-03-12T18:25:19.985Z,6.66
2019-03-12T18:27:49.453Z,6.61
2019-03-12T18:30:18.535Z,6.65
2019-03-12T18:32:47.565Z,6.58
2019-03-12T18:35:16.632Z,6.51
2019-03-12T18:37:45.663Z,6.55
2019-03-12T18:40:16.885Z,6.54
2019-03-12T18:42:46.001Z,6.48
2019-03-12T18:45:17.813Z,6.42
2019-03-12T18:47:47.219Z,6.44
2019-03-12T18:50:16.390Z,6.53
2019-03-12T18:52:45.754Z,6.48
2019-03-12T18:55:44.231Z,6.38
2019-03-12T18:58:13.319Z,6.39
2019-03-12T19:00:43.780Z,6.38
2019-03-12T19:03:12.822Z,6.42
2019-03-12T19:05:41.851Z,6.26
2019-03-12T19:08:10.849Z,6.31
2019-03-12T19:10:39.866Z,6.19
2019-03-12T19:13:09.257Z,6.22
2019-03-12T19:15:38.591Z,6.21
2019-03-12T19:18:08.013Z,6.18
2019-03-12T19:20:37.501Z,6.30
2019-03-12T19:23:06.949Z,6.20
2019-03-12T19:25:38.315Z,6.30
2019-03-12T19:28:07.349Z,6.36
2019-03-12T19:30:36.757Z,6.27
2019-03-12T19:33:08.504Z,6.32
2019-03-12T19:35:37.640Z,6.32
2019-03-12T19:38:06.679Z,6.36
2019-03-12T19:40:36.137Z,6.36
2019-03-12T19:43:05.159Z,6.38
2019-03-12T19:45:34.469Z,6.42
2019-03-12T19:48:03.934Z,6.39
2019-03-12T19:50:32.966Z,6.44
2019-03-12T19:53:02.059Z,6.50
2019-03-12T19:55:34.406Z,6.42
2019-03-12T19:58:04.176Z,6.50
2019-03-12T20:00:33.897Z,6.52
2019-03-12T20:03:11.796Z,6.44
2019-03-12T20:05:33.856Z,6.45
2019-03-12T20:08:03.056Z,6.52
2019-03-12T20:11:06.727Z,6.52
2019-03-12T20:14:40.978Z,6.40
2019-03-12T20:17:41.023Z,6.39
2019-03-12T20:20:49.907Z,6.32
2019-03-12T20:24:01.986Z,6.36
2019-03-12T20:27:02.242Z,6.25
2019-03-12T20:30:10.993Z,6.32
2019-03-12T20:33:04.654Z,6.27
2019-03-12T20:36:25.838Z,6.26
2019-03-12T20:39:32.065Z,6.17
2019-03-12T20:42:39.001Z,6.21
2019-03-12T20:46:03.029Z,6.15
2019-03-12T20:49:31.264Z,6.08
2019-03-12T20:52:39.970Z,6.04
2019-03-12T20:55:47.841Z,5.93
2019-03-12T20:58:52.823Z,5.90
2019-03-12T21:02:08.428Z,5.94
2019-03-12T21:05:17.032Z,5.87
2019-03-12T21:08:30.350Z,5.90
2019-03-12T21:11:46.612Z,5.86
2019-03-12T21:14:59.698Z,5.81
2019-03-12T21:18:06.012Z,5.86
2019-03-12T21:21:23.658Z,5.74
2019-03-12T21:24:24.364Z,5.73
2019-03-12T21:27:30.357Z,5.73
2019-03-12T21:29:57.827Z,5.75
2019-03-12T21:32:26.819Z,5.72
2019-03-12T21:34:56.724Z,5.80
2019-03-12T21:37:25.787Z,5.74
2019-03-12T21:39:56.175Z,5.59
2019-03-12T21:42:25.831Z,5.79
2019-03-12T21:44:54.953Z,5.84
2019-03-12T21:47:24.332Z,5.75
2019-03-12T21:49:53.384Z,5.87
2019-03-12T21:52:22.476Z,5.87
2019-03-12T21:54:51.540Z,5.88
2019-03-12T21:57:20.571Z,5.89
2019-03-12T21:59:49.599Z,5.85
2019-03-12T22:02:19.318Z,5.99
2019-03-12T22:04:48.342Z,5.86
2019-03-12T22:07:17.494Z,5.89
2019-03-12T22:09:46.912Z,5.82
2019-03-12T22:12:16.306Z,5.84
2019-03-12T22:14:45.434Z,5.80
2019-03-12T22:17:14.508Z,5.93
2019-03-12T22:19:43.902Z,5.85
2019-03-12T22:22:24.240Z,5.88
2019-03-12T22:24:53.578Z,5.97
2019-03-12T22:27:22.636Z,5.89
2019-03-12T22:29:51.662Z,6.03
2019-03-12T22:32:20.953Z,6.09
2019-03-12T22:34:50.008Z,6.12
2019-03-12T22:37:19.351Z,6.17
2019-03-12T22:39:48.432Z,6.07
2019-03-12T22:42:17.462Z,6.11
2019-03-12T22:44:46.881Z,6.09
2019-03-12T22:47:15.997Z,6.19
2019-03-12T22:49:45.747Z,6.23
2019-03-12T22:52:14.791Z,6.11
2019-03-12T22:54:44.192Z,6.14
2019-03-12T22:57:13.560Z,6.22
2019-03-12T22:59:42.963Z,6.13
2019-03-12T23:02:12.028Z,6.11
2019-03-12T23:04:41.141Z,6.08
2019-03-12T23:07:10.190Z,6.24
2019-03-12T23:09:39.453Z,6.30
2019-03-12T23:12:08.457Z,6.38
2019-03-12T23:14:37.512Z,6.28
2019-03-12T23:17:06.595Z,6.48
2019-03-12T23:19:35.676Z,6.20
2019-03-12T23:22:04.733Z,6.13
2019-03-12T23:24:33.739Z,5.97
2019-03-12T23:27:02.792Z,6.10
2019-03-12T23:29:31.855Z,6.19
2019-03-12T23:32:01.212Z,6.12
2019-03-12T23:34:30.284Z,6.03
2019-03-12T23:36:59.311Z,5.98
2019-03-12T23:39:28.308Z,6.19
2019-03-12T23:41:57.736Z,6.40
2019-03-12T23:44:26.747Z,6.32
2019-03-12T23:46:55.745Z,6.27
2019-03-12T23:49:24.901Z,6.27
2019-03-12T23:51:54.308Z,6.34
2019-03-12T23:54:24.180Z,6.36
2019-03-12T23:56:53.510Z,6.40
2019-03-12T23:59:22.571Z,6.40
